Marne, Iowa
Current Conditions -  °F | °C
As of 3:35 AM on Saturday 20 Dec 2014 (Local Time) from KAIO Reporting Station
Haze Haze  
Wind Chill: 23°   Ceiling: 400
Heat Index: 30°   Visibility: 2.5mi
Dew Point: 30°   Wind: 8mph
Humidity: 100%   Direction: 170°S
Pressure: 30.13"   Gusts: NA
Location:  41.45°N, 95.11°W
Report Text: KAIO 200935Z AUTO 17007KT 2 1/2SM BR OVC004 M01/M01 A3013 RMK AO2
Loading
Personal Weather Stations






























Interactive Weather Map New forecast layout! Learn more

10-Day Weather Forecast

Advertisements
Track Severe Weather on mobile